Weather at Kuntz Field

Public forecast

Using degrees Fahrenheit for public forecast. Weather courtesy of forecast.io.

Closest aviation weather report (METAR) to Kuntz Field

Closest report is Central Illinois Regional Airport at Bloomington-Normal, 14.9 nm (27.7 km) S. Retrieved 2020/09/19 11:56 UTC (31 minutes ago):

KBMI 191156Z 07006KT 7SM CLR 04/03 A3037 RMK AO2 SLP284 T00390033 10061 20039 53007

Closest aviation forecast (TAF) to Kuntz Field

Closest forecast is Central Illinois Regional Airport at Bloomington-Normal, 14.9 nm (27.7 km) S. Retrieved 2020/09/19 12:22 UTC (5 minutes ago):

TAF KBMI 191120Z 1912/2012 06007KT P6SM SKC FM191600 12009KT P6SM SKC FM200000 10006KT P6SM SCT250